Aviation Digital Data Service (ADDS)

Output produced by METARs form (1548 UTC 12 December 2017)
found at http://www.aviationweather.gov/adds/metars/
 
METAR text: KPIT 121526Z 31019G24KT 10SM SCT017 BKN041 OVC085 M01/M04 A2967 RMK AO2 PK WND 30027/1457 SNE14 P0000 T10061039
Conditions at: KPIT (PITTSBURGH , PA, US) observed 1526 UTC 12 December 2017
Temperature: -0.6°C (31°F)
Dewpoint: -3.9°C (25°F) [RH = 78%]
Pressure (altimeter): 29.67 inches Hg (1004.8 mb)
Winds: from the NW (310 degrees) at 22 MPH (19 knots; 9.9 m/s)
gusting to 28 MPH (24 knots; 12.5 m/s)
Visibility: 10 or more miles (16+ km)
Ceiling: 4100 feet AGL
Clouds: scattered clouds at 1700 feet AGL
broken clouds at 4100 feet AGL
overcast cloud deck at 8500 feet AGL
Weather: no significant weather observed at this time

METAR text: K2G4 121530Z AUTO 29011G22KT 252V322 2SM OVC004 M03/M03 A2953 RMK AO1
Conditions at: K2G4 (GARRETT CO , MD, US) observed 1530 UTC 12 December 2017
Temperature: -3.0°C (27°F)
Dewpoint: -3.0°C (27°F) [RH = 100%]
Pressure (altimeter): 29.53 inches Hg (1000.1 mb)
Winds: from the WNW (290 degrees) at 13 MPH (11 knots; 5.7 m/s)
gusting to 25 MPH (22 knots; 11.4 m/s)
Visibility: 2.00 miles (3.22 km)
Ceiling: 400 feet AGL
Clouds: overcast cloud deck at 400 feet AGL
Weather: automated observation with no human augmentation;
there may or may not be significant weather present at this time

METAR text: KAFJ 121524Z AUTO 31011KT 9SM FEW012 BKN020 OVC060 M01/M04 A2971 RMK AO2 SNE23 P0000 FZRANO
Conditions at: KAFJ (WASHINGTON , PA, US) observed 1524 UTC 12 December 2017
Temperature: -1.0°C (30°F)
Dewpoint: -4.0°C (25°F) [RH = 80%]
Pressure (altimeter): 29.71 inches Hg (1006.2 mb)
Winds: from the NW (310 degrees) at 13 MPH (11 knots; 5.7 m/s)
Visibility: 9 miles (14 km)
Ceiling: 2000 feet AGL
Clouds: few clouds at 1200 feet AGL
broken clouds at 2000 feet AGL
overcast cloud deck at 6000 feet AGL
Weather: automated observation with no human augmentation;
there may or may not be significant weather present at this time

METAR text: KAGC 121507Z 33018G28KT 1SM R28/2600V4000FT -SN BR VV004 M02/M04 A2964 RMK AO2 PK WND 34028/1506 P0000 T10221039
Conditions at: KAGC (PITTSBURGH/ALLEG, PA, US) observed 1507 UTC 12 December 2017
Temperature: -2.2°C (28°F)
Dewpoint: -3.9°C (25°F) [RH = 88%]
Pressure (altimeter): 29.64 inches Hg (1003.8 mb)
Winds: from the NNW (330 degrees) at 21 MPH (18 knots; 9.4 m/s)
gusting to 32 MPH (28 knots; 14.6 m/s)
Visibility: 1.00 miles (1.61 km)
Ceiling: indefinite ceiling with vertical visibility of 400 feet AGL
Clouds: obscured sky
Weather: -SN BR  (light snow, mist)

METAR text: KBTP 121544Z AUTO 29012G19KT 3/4SM -SN BR SCT010 OVC015 M02/M04 A2967 RMK AO2 P0002 FZRANO RVRNO
Conditions at: KBTP (BUTLER CO. , PA, US) observed 1544 UTC 12 December 2017
Temperature: -2.0°C (28°F)
Dewpoint: -4.0°C (25°F) [RH = 86%]
Pressure (altimeter): 29.67 inches Hg (1004.8 mb)
Winds: from the WNW (290 degrees) at 14 MPH (12 knots; 6.2 m/s)
gusting to 22 MPH (19 knots; 9.9 m/s)
Visibility: 0.75 miles (1.21 km)
Ceiling: 1500 feet AGL
Clouds: scattered clouds at 1000 feet AGL
overcast cloud deck at 1500 feet AGL
Weather: -SN BR  (light snow, mist)

METAR text: KBVI 121447Z 29008G14KT 2SM -SN BKN010 OVC015 M02/M04 A2967
Conditions at: KBVI (BEAVER FALLS ARP, PA, US) observed 1447 UTC 12 December 2017
Temperature: -2.0°C (28°F)
Dewpoint: -4.0°C (25°F) [RH = 86%]
Pressure (altimeter): 29.67 inches Hg (1004.8 mb)
Winds: from the WNW (290 degrees) at 9 MPH (8 knots; 4.2 m/s)
gusting to 16 MPH (14 knots; 7.3 m/s)
Visibility: 2.00 miles (3.22 km)
Ceiling: 1000 feet AGL
Clouds: broken clouds at 1000 feet AGL
overcast cloud deck at 1500 feet AGL
Weather: -SN  (light snow)

METAR text: KDUJ 121543Z AUTO 31018G29KT 1/4SM -SN FZFG BKN008 OVC013 M03/M06 A2954 RMK AO2 PK WND 30029/1539 P0002 T10331056
Conditions at: KDUJ (DU BOIS , PA, US) observed 1543 UTC 12 December 2017
Temperature: -3.3°C (26°F)
Dewpoint: -5.6°C (22°F) [RH = 84%]
Pressure (altimeter): 29.54 inches Hg (1000.4 mb)
Winds: from the NW (310 degrees) at 21 MPH (18 knots; 9.4 m/s)
gusting to 33 MPH (29 knots; 15.1 m/s)
Visibility: 0.25 miles (0.40 km)
Ceiling: 800 feet AGL
Clouds: broken clouds at 800 feet AGL
overcast cloud deck at 1300 feet AGL
Weather: -SN FZFG  (light snow, freezing fog)

METAR text: KFKL 121544Z AUTO 32008KT 1SM -SN BR BKN014 OVC020 M05/M07 A2965 RMK AO2 P0000 FZRANO
Conditions at: KFKL (FRANKLIN , PA, US) observed 1544 UTC 12 December 2017
Temperature: -5.0°C (23°F)
Dewpoint: -7.0°C (19°F) [RH = 86%]
Pressure (altimeter): 29.65 inches Hg (1004.1 mb)
Winds: from the NW (320 degrees) at 9 MPH (8 knots; 4.2 m/s)
Visibility: 1.00 miles (1.61 km)
Ceiling: 1400 feet AGL
Clouds: broken clouds at 1400 feet AGL
overcast cloud deck at 2000 feet AGL
Weather: -SN BR  (light snow, mist)

METAR text: KHLG 121528Z 30014G22KT 6SM -SN SCT021 BKN026 OVC080 M02/M06 A2970 RMK AO2 SNB23 P0000 T10171061
Conditions at: KHLG (WHEELING , WV, US) observed 1528 UTC 12 December 2017
Temperature: -1.7°C (29°F)
Dewpoint: -6.1°C (21°F) [RH = 72%]
Pressure (altimeter): 29.70 inches Hg (1005.8 mb)
Winds: from the WNW (300 degrees) at 16 MPH (14 knots; 7.3 m/s)
gusting to 25 MPH (22 knots; 11.4 m/s)
Visibility: 6 miles (10 km)
Ceiling: 2600 feet AGL
Clouds: scattered clouds at 2100 feet AGL
broken clouds at 2600 feet AGL
overcast cloud deck at 8000 feet AGL
Weather: -SN  (light snow)

METAR text: KIDI 121535Z AUTO 31013G20KT 1/2SM FZFG BKN004 OVC010 M01/M01 A2963 RMK A01
Conditions at: KIDI (INDIANA/STEWART , PA, US) observed 1535 UTC 12 December 2017
Temperature: -1.0°C (30°F)
Dewpoint: -1.0°C (30°F) [RH = 100%]
Pressure (altimeter): 29.63 inches Hg (1003.5 mb)
Winds: from the NW (310 degrees) at 15 MPH (13 knots; 6.8 m/s)
gusting to 23 MPH (20 knots; 10.4 m/s)
Visibility: 0.50 miles (0.80 km)
Ceiling: 400 feet AGL
Clouds: broken clouds at 400 feet AGL
overcast cloud deck at 1000 feet AGL
Weather: FZFG  (freezing fog)

METAR text: KLBE 121450Z 27014KT 2SM -SN BKN016 OVC026 00/M01 A2964
Conditions at: KLBE (LATROBE/WESTMORL, PA, US) observed 1450 UTC 12 December 2017
Temperature: 0.0°C (32°F)
Dewpoint: -1.0°C (30°F) [RH = 93%]
Pressure (altimeter): 29.64 inches Hg (1003.8 mb)
Winds: from the W (270 degrees) at 16 MPH (14 knots; 7.3 m/s)
Visibility: 2.00 miles (3.22 km)
Ceiling: 1600 feet AGL
Clouds: broken clouds at 1600 feet AGL
overcast cloud deck at 2600 feet AGL
Weather: -SN  (light snow)

METAR text: KMGW 121542Z 30006KT 1 1/2SM -SN BKN016 BKN023 OVC029 00/M03 A2968 RMK AO2 P0000 T00001028
Conditions at: KMGW (MORGANTOWN , WV, US) observed 1542 UTC 12 December 2017
Temperature: 0.0°C (32°F)
Dewpoint: -2.8°C (27°F) [RH = 81%]
Pressure (altimeter): 29.68 inches Hg (1005.2 mb)
Winds: from the WNW (300 degrees) at 7 MPH (6 knots; 3.1 m/s)
Visibility: 1.50 miles (2.41 km)
Ceiling: 1600 feet AGL
Clouds: broken clouds at 1600 feet AGL
broken clouds at 2300 feet AGL
overcast cloud deck at 2900 feet AGL
Weather: -SN  (light snow)

METAR text: KPHD 121453Z AUTO 32016G23KT 9SM FEW025 SCT042 OVC060 M02/M08 A2977 RMK AO2 SNB1358E48 SLP089 P0000 60000 T10221078 53025 $
Conditions at: KPHD (NEW PHILADELPHIA, OH, US) observed 1453 UTC 12 December 2017
Temperature: -2.2°C (28°F)
Dewpoint: -7.8°C (18°F) [RH = 65%]
Pressure (altimeter): 29.77 inches Hg (1008.2 mb)
[Sea-level pressure: 1008.9 mb]
Winds: from the NW (320 degrees) at 18 MPH (16 knots; 8.3 m/s)
gusting to 26 MPH (23 knots; 12.0 m/s)
Visibility: 9 miles (14 km)
Ceiling: 6000 feet AGL
Clouds: few clouds at 2500 feet AGL
scattered clouds at 4200 feet AGL
overcast cloud deck at 6000 feet AGL
Weather:
SOME DATA ABOVE MAY BE INACCURATE!!!
"$" is an indication the sensor requires maintenance

METAR text: KUCP 121507Z AUTO 30013G23KT 3SM -SN FEW008 BKN030 OVC048 M03/M06 A2970 RMK AO2 P0000
Conditions at: KUCP (NEW CASTLE MUNI , PA, US) observed 1507 UTC 12 December 2017
Temperature: -3.0°C (27°F)
Dewpoint: -6.0°C (21°F) [RH = 80%]
Pressure (altimeter): 29.70 inches Hg (1005.8 mb)
Winds: from the WNW (300 degrees) at 15 MPH (13 knots; 6.8 m/s)
gusting to 26 MPH (23 knots; 12.0 m/s)
Visibility: 3 miles (5 km)
Ceiling: 3000 feet AGL
Clouds: few clouds at 800 feet AGL
broken clouds at 3000 feet AGL
overcast cloud deck at 4800 feet AGL
Weather: -SN  (light snow)

METAR text: KZZV 121453Z AUTO 30012G24KT 10SM SCT024 BKN050 OVC070 M02/M07 A2979 RMK AO2 SNB1359E36 SLP096 P0000 60001 T10171067 53024
Conditions at: KZZV (ZANESVILLE , OH, US) observed 1453 UTC 12 December 2017
Temperature: -1.7°C (29°F)
Dewpoint: -6.7°C (20°F) [RH = 69%]
Pressure (altimeter): 29.79 inches Hg (1008.9 mb)
[Sea-level pressure: 1009.6 mb]
Winds: from the WNW (300 degrees) at 14 MPH (12 knots; 6.2 m/s)
gusting to 28 MPH (24 knots; 12.5 m/s)
Visibility: 10 or more miles (16+ km)
Ceiling: 5000 feet AGL
Clouds: scattered clouds at 2400 feet AGL
broken clouds at 5000 feet AGL
overcast cloud deck at 7000 feet AGL
Weather: automated observation with no human augmentation;
there may or may not be significant weather present at this time